Groton, NY (13073)

9:57 PM EDT on October 25, 2014 (GMT -0400)
Millbrook Farms | Change Station
CLOSE
Current Station
Personal Weather Station
Location: Freeville, NY
Elevation: 1430 ft
Nearby Weather Stations

Elev 1430 ft 42.56 °N, 76.32 °W | Updated 2 minutes ago

Mostly Cloudy
Mostly Cloudy
54.2 °F
Feels Like 54.2 °F
N
3.0
Wind Variable Wind from West
Gusts 17.0 mph

Today
High -- | Low -- °F
--% Chance of Precip.
Yesterday
High -- | Low -- °F
Precip. -- in
7:30 AM 6:08 PM
Waxing Crescent, 5% visible
Pressure 29.64 in
Visibility 10.0 miles
Clouds Mostly Cloudy 4100 ft
Dew Point 48 °F
Humidity 79%
Rainfall 0.00 in
Snow Depth Not available.
UV 0 out of 12
Pollen .60 out of 12
Ozone Good
PM2.5 Good
Flu Activity Sporadic
METAR KITH 260056Z 28011G18KT 10SM BKN041 14/07 A2963 RMK AO2 T01440072 SLP036

More Conditions Fewer Conditions

Pressure 29.64 in
Visibility 10.0 miles
Clouds Mostly Cloudy 4100 ft
Dew Point 48 °F
Humidity 79%
Rainfall 0.00 in
Snow Depth Not available.
UV 0 out of 12
Pollen .60 out of 12
Ozone Good
PM2.5 Good
Flu Activity Sporadic
METAR KITH 260056Z 28011G18KT 10SM BKN041 14/07 A2963 RMK AO2 T01440072 SLP036

More Conditions Fewer Conditions

Nowcast | as of 9:46 PM EDT on October 25, 2014

Rain showers are possible tonight across portions of central New York and northeast Pennsylvania for the next few hours. These showers are moving to the southeast. A rumble of thunder is possible with these showers. Accumulations around a tenth of an inch are possible.

×

10-Day Weather Forecast

Almanac

Astronomy

Oct. 25, 2014 Rise Set
Actual Time 7:30 AM EDT 6:08 PM EDT
Civil Twilight 7:01 AM EDT 6:36 PM EDT
Nautical Twilight 6:28 AM EDT 7:09 PM EDT
Astronomical Twilight 5:56 AM EDT 7:42 PM EDT
Moon 9:08 AM EDT (10/25) 7:27 PM EDT (10/25)
Length of Visible Light 11h 35m
Length of Day
10h 37m
Tomorrow will be 2m 39s shorter.
Waxing Crescent, 5% of the Moon is Illuminated
Today
Waxing Crescent
Oct 30
First Quarter
Nov 6
Full
Nov 14
Last Quarter
Nov 22
New

Today's Extremes

State Highs State Lows

Community

WunderPhotos

Upload Photos

1,765,071 photos uploaded!

Nearby

Air Quality

  Air Quality AQ Index Pollutant
Yesterday Good
OZONE
Yesterday Good
PM2.5
Current Good
PM2.5
Current Good
OZONE
Saturday Good
PM2.5
Sunday Good
PM2.5
Monday Good
PM2.5

Snow Depth

Station Depth Elevation
No new snow has been reported.

Earthquake Activity

City Distance Mag. Time & Date
No recent earthquake activity has been reported nearby.
Minimum magnitude displayed is 2.5.

Coastal Water Temperatures

Place Temperature
No Stations Reporting

Nearby Weather Stations